LYBE/BEG METAR and TAF weather

Enter ICAO airport designator
Station Type Date Time Source
LYBE METAR 2019/12/08 14:00 UTC NOAA

LYBE 081400Z 09005KT 3000 BR NSC 09/09 Q1018 NOSIG


Station Type Date Time Source
LYBE Decoded METAR 2019/12/08 14:00 UTC NOAA

Beograd / Surcin, Serbia and Montenegro (LYBE) 44-49N 020-17E 99M
Dec 08, 2019 - 09:00 AM EST / 2019.12.08 1400 UTC
Wind: from the E (090 degrees) at 6 MPH (5 KT):0
Visibility: 1 mile(s):0
Weather: mist
Temperature: 48 F (9 C)
Dew Point: 48 F (9 C)
Relative Humidity: 100%
Pressure (altimeter): 30.06 in. Hg (1018 hPa)
ob: LYBE 081400Z 09005KT 3000 BR NSC 09/09 Q1018 NOSIG
cycle: 14

Station Type Date Time Source
LYBE TAF 2019/12/08 15:15 UTC NOAA

TAF
AMD LYBE 081410Z 0815/0912 09004KT 1500 BR NSC TX08/0815Z TN01/0905Z
TEMPO 0815/0817 3000
BECMG 0818/0820 0800 FG BKN005
BECMG 0822/0824 0300 OVC002
BECMG 0908/0910 2000 BR BKN010
BECMG 0910/0912 6000 NSW SCT020

Example: see airport list